createdAt,value
2018-12-15T00:00:52.762Z,20.13
2018-12-15T00:03:22.257Z,17.03
2018-12-15T00:05:51.851Z,18.37
2018-12-15T00:08:21.447Z,18.10
2018-12-15T00:10:50.979Z,17.47
2018-12-15T00:13:20.380Z,19.03
2018-12-15T00:15:50.033Z,21.07
2018-12-15T00:18:19.575Z,21.73
2018-12-15T00:20:49.071Z,20.60
2018-12-15T00:23:18.604Z,21.80
2018-12-15T00:25:48.091Z,21.80
2018-12-15T00:28:18.269Z,22.10
2018-12-15T00:30:47.811Z,20.87
2018-12-15T00:33:17.329Z,21.20
2018-12-15T00:35:46.748Z,20.23
2018-12-15T00:38:16.220Z,24.67
2018-12-15T00:40:45.699Z,24.40
2018-12-15T00:43:15.520Z,20.73
2018-12-15T00:45:45.494Z,21.57
2018-12-15T00:48:14.827Z,21.40
2018-12-15T00:50:44.324Z,19.70
2018-12-15T00:53:13.643Z,18.47
2018-12-15T00:55:43.132Z,17.30
2018-12-15T00:58:12.663Z,17.27
2018-12-15T01:00:42.195Z,21.37
2018-12-15T01:03:11.715Z,22.07
2018-12-15T01:05:41.205Z,18.57
2018-12-15T01:08:10.628Z,17.37
2018-12-15T01:10:39.986Z,20.53
2018-12-15T01:13:09.559Z,20.10
2018-12-15T01:15:44.082Z,20.97
2018-12-15T01:18:14.204Z,20.60
2018-12-15T01:20:43.737Z,22.63
2018-12-15T01:23:13.469Z,23.53
2018-12-15T01:25:42.988Z,20.23
2018-12-15T01:28:12.312Z,21.43
2018-12-15T01:30:41.786Z,20.20
2018-12-15T01:33:11.264Z,20.57
2018-12-15T01:35:40.866Z,20.77
2018-12-15T01:38:10.713Z,20.80
2018-12-15T01:40:40.467Z,21.20
2018-12-15T01:43:09.850Z,19.93
2018-12-15T01:45:39.179Z,19.50
2018-12-15T01:48:08.672Z,19.23
2018-12-15T01:50:38.989Z,17.77
2018-12-15T01:53:08.461Z,19.10
2018-12-15T01:55:37.893Z,19.27
2018-12-15T01:58:07.292Z,21.10
2018-12-15T02:00:36.836Z,21.20
2018-12-15T02:03:07.121Z,21.87
2018-12-15T02:05:36.720Z,20.37
2018-12-15T02:08:06.850Z,20.57
2018-12-15T02:10:36.312Z,20.33
2018-12-15T02:13:14.099Z,21.30
2018-12-15T02:15:43.730Z,20.97
2018-12-15T02:18:13.211Z,20.60
2018-12-15T02:20:42.800Z,20.97
2018-12-15T02:23:12.312Z,22.13
2018-12-15T02:25:41.730Z,20.90
2018-12-15T02:28:11.564Z,21.23
2018-12-15T02:30:41.330Z,20.70
2018-12-15T02:33:10.835Z,21.60
2018-12-15T02:35:40.383Z,23.33
2018-12-15T02:38:09.889Z,25.00
2018-12-15T02:40:39.381Z,21.53
2018-12-15T02:43:09.121Z,28.73
2018-12-15T02:45:38.532Z,25.20
2018-12-15T02:48:17.632Z,19.67
2018-12-15T02:50:47.038Z,23.10
2018-12-15T02:53:16.437Z,21.77
2018-12-15T02:55:45.908Z,25.27
2018-12-15T02:58:15.411Z,24.47
2018-12-15T03:00:44.917Z,22.07
2018-12-15T03:03:14.455Z,23.67
2018-12-15T03:05:43.895Z,23.33
2018-12-15T03:08:13.289Z,25.67
2018-12-15T03:10:42.828Z,23.87
2018-12-15T03:13:12.336Z,25.20
2018-12-15T03:15:41.870Z,23.63
2018-12-15T03:18:11.447Z,27.33
2018-12-15T03:20:43.740Z,26.57
2018-12-15T03:23:13.244Z,24.60
2018-12-15T03:25:43.550Z,23.00
2018-12-15T03:28:13.324Z,23.67
2018-12-15T03:30:42.849Z,22.83
2018-12-15T03:33:12.533Z,23.00
2018-12-15T03:35:44.837Z,23.00
2018-12-15T03:38:14.375Z,23.57
2018-12-15T03:40:43.789Z,25.03
2018-12-15T03:43:14.646Z,21.43
2018-12-15T03:45:44.296Z,28.13
2018-12-15T03:48:13.795Z,27.47
2018-12-15T03:50:43.231Z,30.33
2018-12-15T03:53:13.100Z,26.60
2018-12-15T03:55:42.618Z,28.47
2018-12-15T03:58:13.091Z,24.67
2018-12-15T04:00:42.510Z,23.93
2018-12-15T04:03:11.949Z,26.27
2018-12-15T04:05:41.480Z,22.10
2018-12-15T04:08:10.954Z,26.97
2018-12-15T04:10:40.485Z,27.77
2018-12-15T04:13:09.930Z,25.63
2018-12-15T04:15:39.371Z,23.03
2018-12-15T04:18:08.977Z,22.27
2018-12-15T04:20:38.587Z,20.30
2018-12-15T04:23:09.109Z,25.70
2018-12-15T04:25:38.627Z,22.17
2018-12-15T04:28:08.333Z,20.63
2018-12-15T04:30:37.678Z,24.60
2018-12-15T04:33:07.000Z,24.37
2018-12-15T04:35:36.271Z,23.70
2018-12-15T04:38:05.715Z,24.57
2018-12-15T04:40:35.335Z,23.50
2018-12-15T04:43:04.774Z,23.57
2018-12-15T04:45:34.381Z,22.50
2018-12-15T04:48:10.849Z,25.93
2018-12-15T04:50:35.264Z,28.80
2018-12-15T04:53:04.666Z,28.57
2018-12-15T04:55:34.208Z,27.00
2018-12-15T04:58:10.862Z,25.83
2018-12-15T05:00:48.142Z,24.03
2018-12-15T05:03:27.614Z,23.60
2018-12-15T05:06:04.992Z,30.80
2018-12-15T05:08:44.509Z,37.23
2018-12-15T05:11:13.938Z,30.87
2018-12-15T05:13:43.364Z,31.47
2018-12-15T05:16:12.845Z,29.83
2018-12-15T05:18:42.284Z,28.37
2018-12-15T05:21:11.915Z,29.07
2018-12-15T05:23:41.216Z,25.30
2018-12-15T05:26:10.964Z,28.13
2018-12-15T05:28:40.466Z,30.20
2018-12-15T05:31:09.987Z,29.63
2018-12-15T05:33:39.495Z,29.50
2018-12-15T05:36:09.183Z,28.93
2018-12-15T05:38:38.657Z,29.73
2018-12-15T05:41:08.191Z,30.80
2018-12-15T05:43:37.700Z,30.50
2018-12-15T05:46:07.096Z,35.90
2018-12-15T05:48:36.773Z,29.93
2018-12-15T05:51:06.127Z,33.43
2018-12-15T05:53:35.528Z,27.27
2018-12-15T05:56:05.646Z,30.67
2018-12-15T05:58:35.094Z,27.13
2018-12-15T06:01:04.455Z,31.27
2018-12-15T06:03:33.800Z,34.60
2018-12-15T06:06:03.651Z,29.53
2018-12-15T06:08:33.258Z,27.20
2018-12-15T06:11:02.675Z,27.60
2018-12-15T06:13:32.079Z,33.00
2018-12-15T06:16:02.234Z,25.10
2018-12-15T06:18:31.974Z,28.60
2018-12-15T06:21:01.423Z,30.10
2018-12-15T06:23:31.374Z,27.27
2018-12-15T06:26:01.479Z,26.77
2018-12-15T06:28:31.064Z,25.70
2018-12-15T06:31:00.511Z,27.47
2018-12-15T06:33:29.961Z,27.33
2018-12-15T06:35:59.463Z,29.80
2018-12-15T06:38:28.883Z,27.30
2018-12-15T06:40:58.315Z,28.53
2018-12-15T06:43:28.135Z,29.20
2018-12-15T06:45:58.156Z,29.33
2018-12-15T06:48:27.582Z,29.03
2018-12-15T06:50:57.108Z,29.10
2018-12-15T06:53:26.591Z,30.10
2018-12-15T06:55:56.157Z,29.43
2018-12-15T06:58:26.170Z,29.02
2018-12-15T07:00:55.597Z,31.80
2018-12-15T07:03:25.094Z,30.50
2018-12-15T07:05:55.599Z,32.03
2018-12-15T07:08:25.096Z,32.07
2018-12-15T07:10:54.500Z,27.87
2018-12-15T07:13:23.956Z,30.17
2018-12-15T07:15:53.567Z,31.00
2018-12-15T07:18:23.182Z,31.27
2018-12-15T07:20:52.705Z,33.10
2018-12-15T07:23:22.128Z,34.80
2018-12-15T07:25:51.621Z,32.90
2018-12-15T07:28:21.183Z,30.47
2018-12-15T07:30:50.859Z,32.90
2018-12-15T07:33:20.305Z,32.37
2018-12-15T07:35:50.772Z,31.17
2018-12-15T07:38:20.349Z,31.67
2018-12-15T07:40:49.858Z,30.80
2018-12-15T07:43:19.309Z,30.87
2018-12-15T07:45:48.749Z,31.77
2018-12-15T07:48:18.253Z,32.57
2018-12-15T07:50:47.978Z,33.23
2018-12-15T07:53:17.458Z,34.20
2018-12-15T07:55:47.012Z,32.03
2018-12-15T07:58:16.473Z,30.50
2018-12-15T08:00:45.915Z,30.17
2018-12-15T08:03:15.300Z,30.10
2018-12-15T08:05:44.849Z,32.50
2018-12-15T08:08:14.393Z,32.27
2018-12-15T08:10:48.775Z,30.40
2018-12-15T08:13:28.824Z,33.83
2018-12-15T08:15:58.850Z,32.53
2018-12-15T08:18:28.284Z,29.87
2018-12-15T08:20:57.816Z,32.00
2018-12-15T08:23:27.232Z,30.43
2018-12-15T08:25:56.867Z,30.47
2018-12-15T08:28:26.356Z,32.93
2018-12-15T08:30:55.817Z,33.23
2018-12-15T08:33:25.323Z,31.27
2018-12-15T08:35:54.839Z,32.83
2018-12-15T08:38:24.582Z,30.23
2018-12-15T08:40:54.027Z,30.73
2018-12-15T08:43:23.535Z,32.47
2018-12-15T08:45:53.987Z,30.43
2018-12-15T08:48:23.803Z,31.17
2018-12-15T08:50:53.546Z,28.63
2018-12-15T08:53:22.984Z,32.27
2018-12-15T08:55:52.724Z,31.67
2018-12-15T08:58:22.140Z,31.10
2018-12-15T09:00:51.458Z,31.27
2018-12-15T09:03:20.861Z,30.97
2018-12-15T09:05:50.298Z,29.50
2018-12-15T09:08:20.059Z,33.93
2018-12-15T09:10:49.643Z,31.83
2018-12-15T09:13:18.982Z,29.40
2018-12-15T09:15:50.670Z,32.20
2018-12-15T09:18:20.100Z,32.17
2018-12-15T09:20:49.595Z,31.33
2018-12-15T09:23:19.059Z,31.57
2018-12-15T09:25:48.479Z,32.10
2018-12-15T09:28:18.008Z,31.20
2018-12-15T09:30:47.428Z,32.63
2018-12-15T09:33:16.855Z,33.67
2018-12-15T09:35:46.455Z,30.87
2018-12-15T09:38:15.879Z,31.87
2018-12-15T09:40:45.416Z,32.33
2018-12-15T09:43:15.032Z,27.53
2018-12-15T09:45:44.563Z,30.27
2018-12-15T09:48:13.903Z,34.00
2018-12-15T09:50:43.831Z,30.27
2018-12-15T09:53:14.171Z,32.97
2018-12-15T09:55:43.696Z,35.30
2018-12-15T09:58:13.620Z,30.53
2018-12-15T10:00:43.088Z,33.77
2018-12-15T10:03:12.488Z,30.53
2018-12-15T10:05:42.007Z,33.43
2018-12-15T10:08:11.803Z,33.10
2018-12-15T10:10:41.695Z,31.63
2018-12-15T10:13:11.167Z,33.40
2018-12-15T10:15:40.690Z,33.33
2018-12-15T10:18:10.132Z,35.03
2018-12-15T10:20:39.633Z,33.83
2018-12-15T10:23:09.060Z,32.50
2018-12-15T10:25:38.472Z,33.50
2018-12-15T10:28:07.812Z,33.93
2018-12-15T10:30:44.527Z,35.77
2018-12-15T10:33:13.981Z,36.93
2018-12-15T10:35:43.533Z,35.93
2018-12-15T10:38:13.035Z,36.13
2018-12-15T10:40:42.342Z,34.77
2018-12-15T10:43:11.855Z,36.87
2018-12-15T10:45:41.696Z,37.13
2018-12-15T10:48:11.071Z,35.10
2018-12-15T10:50:41.642Z,36.83
2018-12-15T10:53:11.368Z,38.20
2018-12-15T10:55:40.856Z,37.37
2018-12-15T10:58:10.699Z,36.80
2018-12-15T11:00:45.209Z,39.30
2018-12-15T11:03:14.724Z,43.00
2018-12-15T11:05:44.126Z,39.57
2018-12-15T11:08:13.636Z,41.27
2018-12-15T11:10:43.073Z,40.50
2018-12-15T11:13:12.421Z,37.90
2018-12-15T11:15:41.891Z,39.20
2018-12-15T11:18:11.448Z,40.67
2018-12-15T11:20:41.047Z,39.03
2018-12-15T11:23:10.559Z,39.67
2018-12-15T11:25:40.062Z,39.87
2018-12-15T11:28:09.941Z,40.03
2018-12-15T11:30:39.355Z,37.93
2018-12-15T11:33:09.117Z,38.30
2018-12-15T11:35:39.072Z,37.87
2018-12-15T11:38:08.472Z,39.23
2018-12-15T11:40:37.776Z,37.70
2018-12-15T11:43:07.071Z,38.60
2018-12-15T11:45:36.603Z,37.00
2018-12-15T11:48:06.120Z,38.20
2018-12-15T11:50:35.551Z,39.50
2018-12-15T11:53:04.954Z,37.03
2018-12-15T11:55:34.382Z,38.80
2018-12-15T11:58:04.028Z,38.50
2018-12-15T12:00:33.579Z,39.13
2018-12-15T12:03:02.972Z,37.73
2018-12-15T12:05:32.364Z,39.03
2018-12-15T12:08:01.705Z,35.63
2018-12-15T12:10:31.126Z,35.60
2018-12-15T12:13:00.549Z,35.77
2018-12-15T12:15:30.051Z,36.37
2018-12-15T12:17:59.556Z,37.30
2018-12-15T12:20:28.974Z,39.03
2018-12-15T12:22:58.382Z,35.60
2018-12-15T12:25:27.779Z,38.40
2018-12-15T12:27:57.434Z,36.60
2018-12-15T12:30:26.799Z,37.43
2018-12-15T12:32:59.375Z,37.90
2018-12-15T12:35:34.271Z,39.03
2018-12-15T12:38:04.027Z,36.73
2018-12-15T12:40:34.877Z,35.23
2018-12-15T12:43:04.471Z,35.27
2018-12-15T12:45:34.259Z,38.63
2018-12-15T12:48:03.774Z,36.67
2018-12-15T12:50:33.795Z,37.13
2018-12-15T12:53:03.263Z,37.00
2018-12-15T12:55:32.776Z,38.33
2018-12-15T12:58:02.298Z,35.13
2018-12-15T13:00:31.720Z,39.27
2018-12-15T13:03:01.583Z,36.73
2018-12-15T13:05:31.131Z,38.57
2018-12-15T13:08:00.516Z,36.80
2018-12-15T13:10:30.198Z,39.07
2018-12-15T13:12:59.811Z,36.03
2018-12-15T13:15:29.488Z,35.07
2018-12-15T13:17:58.840Z,38.00
2018-12-15T13:20:28.330Z,38.63
2018-12-15T13:22:59.673Z,36.87
2018-12-15T13:25:29.206Z,35.90
2018-12-15T13:27:59.533Z,38.63
2018-12-15T13:30:30.103Z,38.80
2018-12-15T13:32:59.672Z,36.77
2018-12-15T13:35:28.990Z,39.43
2018-12-15T13:38:00.026Z,39.43
2018-12-15T13:40:30.361Z,37.83
2018-12-15T13:43:01.510Z,37.90
2018-12-15T13:45:31.100Z,37.10
2018-12-15T13:48:01.748Z,37.20
2018-12-15T13:50:31.299Z,37.80
2018-12-15T13:53:01.884Z,39.70
2018-12-15T13:55:35.157Z,38.40
2018-12-15T13:58:05.123Z,38.50
2018-12-15T14:00:34.840Z,36.63
2018-12-15T14:03:06.283Z,38.47
2018-12-15T14:05:35.823Z,39.97
2018-12-15T14:08:05.224Z,39.90
2018-12-15T14:10:34.586Z,41.23
2018-12-15T14:13:04.124Z,39.80
2018-12-15T14:15:33.602Z,38.30
2018-12-15T14:18:02.968Z,40.70
2018-12-15T14:20:32.423Z,37.20
2018-12-15T14:23:02.415Z,40.83
2018-12-15T14:25:31.869Z,37.60
2018-12-15T14:28:01.433Z,37.50
2018-12-15T14:30:31.584Z,37.77
2018-12-15T14:33:01.095Z,37.63
2018-12-15T14:35:30.529Z,37.87
2018-12-15T14:38:00.733Z,36.10
2018-12-15T14:40:31.175Z,37.27
2018-12-15T14:43:00.540Z,38.97
2018-12-15T14:45:30.023Z,39.70
2018-12-15T14:47:59.430Z,38.73
2018-12-15T14:50:29.015Z,38.00
2018-12-15T14:52:59.923Z,38.03
2018-12-15T14:55:29.311Z,38.53
2018-12-15T14:57:58.676Z,38.93
2018-12-15T15:00:28.115Z,39.37
2018-12-15T15:02:57.516Z,39.97
2018-12-15T15:05:27.067Z,39.87
2018-12-15T15:07:56.996Z,44.20
2018-12-15T15:10:26.452Z,46.67
2018-12-15T15:12:55.988Z,41.90
2018-12-15T15:15:25.596Z,41.67
2018-12-15T15:17:55.644Z,39.33
2018-12-15T15:20:29.763Z,39.63
2018-12-15T15:22:57.146Z,40.70
2018-12-15T15:25:29.136Z,44.03
2018-12-15T15:27:59.662Z,38.20
2018-12-15T15:30:30.509Z,38.50
2018-12-15T15:32:59.948Z,43.13
2018-12-15T15:35:30.341Z,42.33
2018-12-15T15:37:59.784Z,39.70
2018-12-15T15:40:30.571Z,46.33
2018-12-15T15:43:00.446Z,44.00
2018-12-15T15:45:31.879Z,55.70
2018-12-15T15:48:06.003Z,51.47
2018-12-15T15:50:36.607Z,42.00
2018-12-15T15:53:06.854Z,41.60
2018-12-15T15:55:40.263Z,61.07
2018-12-15T15:58:09.873Z,46.17
2018-12-15T16:00:40.988Z,62.20
2018-12-15T16:03:15.749Z,54.67
2018-12-15T16:05:45.306Z,54.30
2018-12-15T16:08:15.153Z,55.90
2018-12-15T16:10:44.745Z,57.17
2018-12-15T16:13:14.414Z,64.50
2018-12-15T16:15:44.360Z,68.47
2018-12-15T16:18:13.858Z,82.73
2018-12-15T16:20:43.530Z,48.77
2018-12-15T16:23:13.959Z,52.33
2018-12-15T16:25:43.927Z,49.97
2018-12-15T16:28:14.619Z,46.23
2018-12-15T16:30:44.308Z,46.40
2018-12-15T16:33:20.295Z,45.67
2018-12-15T16:38:40.228Z,41.73
2018-12-15T16:41:10.063Z,44.20
2018-12-15T16:43:40.876Z,51.33
2018-12-15T16:46:13.410Z,51.10
2018-12-15T16:48:42.858Z,44.83
2018-12-15T16:51:13.182Z,49.90
2018-12-15T16:53:43.328Z,45.47
2018-12-15T16:56:14.032Z,44.73
2018-12-15T16:58:43.567Z,43.60
2018-12-15T17:01:13.083Z,52.97
2018-12-15T17:03:42.482Z,52.80
2018-12-15T17:06:11.988Z,47.70
2018-12-15T17:08:41.686Z,50.70
2018-12-15T17:11:11.896Z,138.13
2018-12-15T17:13:42.920Z,149.17
2018-12-15T17:16:12.873Z,74.57
2018-12-15T17:18:42.519Z,54.70
2018-12-15T17:21:12.084Z,45.87
2018-12-15T17:23:42.063Z,43.97
2018-12-15T17:26:12.131Z,47.93
2018-12-15T17:28:41.549Z,56.63
2018-12-15T17:31:11.383Z,56.37
2018-12-15T17:33:41.252Z,71.43
2018-12-15T17:36:10.731Z,57.83
2018-12-15T17:38:40.216Z,55.10
2018-12-15T17:41:09.746Z,69.77
2018-12-15T17:43:39.160Z,63.70
2018-12-15T17:46:09.035Z,62.37
2018-12-15T17:48:38.791Z,53.30
2018-12-15T17:51:08.387Z,55.93
2018-12-15T17:53:38.245Z,48.43
2018-12-15T17:56:07.975Z,39.83
2018-12-15T17:58:37.401Z,42.40
2018-12-15T18:01:06.805Z,44.00
2018-12-15T18:03:36.164Z,43.60
2018-12-15T18:06:05.660Z,45.20
2018-12-15T18:08:35.160Z,42.50
2018-12-15T18:11:04.559Z,43.73
2018-12-15T18:13:35.119Z,45.37
2018-12-15T18:16:04.476Z,49.67
2018-12-15T18:18:33.893Z,52.43
2018-12-15T18:21:09.611Z,45.47
2018-12-15T18:23:34.948Z,40.73
2018-12-15T18:26:04.419Z,44.23
2018-12-15T18:28:33.924Z,49.57
2018-12-15T18:31:03.327Z,51.23
2018-12-15T18:33:38.834Z,84.83
2018-12-15T18:36:08.538Z,50.73
2018-12-15T18:38:38.087Z,58.53
2018-12-15T18:41:07.693Z,64.07
2018-12-15T18:43:37.159Z,60.20
2018-12-15T18:46:06.715Z,55.70
2018-12-15T18:48:36.308Z,68.97
2018-12-15T18:51:06.803Z,55.13
2018-12-15T18:53:36.331Z,51.33
2018-12-15T18:56:06.377Z,46.60
2018-12-15T18:58:35.883Z,43.73
2018-12-15T19:01:05.518Z,53.27
2018-12-15T19:03:35.273Z,55.13
2018-12-15T19:06:05.093Z,43.13
2018-12-15T19:08:35.274Z,51.53
2018-12-15T19:11:05.040Z,55.47
2018-12-15T19:13:35.529Z,44.37
2018-12-15T19:16:05.415Z,45.93
2018-12-15T19:18:34.812Z,42.27
2018-12-15T19:21:04.199Z,46.63
2018-12-15T19:23:33.960Z,48.63
2018-12-15T19:26:03.947Z,38.17
2018-12-15T19:28:34.367Z,44.20
2018-12-15T19:31:04.211Z,46.93
2018-12-15T19:33:34.224Z,42.87
2018-12-15T19:36:04.034Z,47.63
2018-12-15T19:38:33.891Z,43.03
2018-12-15T19:41:03.748Z,43.57
2018-12-15T19:43:38.198Z,52.87
2018-12-15T19:46:07.910Z,88.97
2018-12-15T19:48:38.890Z,51.40
2018-12-15T19:51:09.030Z,53.47
2018-12-15T19:53:38.995Z,49.07
2018-12-15T19:56:08.704Z,57.73
2018-12-15T19:58:38.445Z,128.90
2018-12-15T20:01:08.306Z,158.03
2018-12-15T20:03:38.019Z,45.00
2018-12-15T20:06:08.022Z,48.33
2018-12-15T20:08:37.744Z,47.23
2018-12-15T20:11:07.741Z,51.97
2018-12-15T20:13:37.569Z,46.00
2018-12-15T20:16:07.468Z,45.77
2018-12-15T20:18:37.356Z,47.90
2018-12-15T20:21:07.168Z,39.87
2018-12-15T20:23:36.907Z,67.77
2018-12-15T20:26:06.564Z,40.90
2018-12-15T20:28:36.243Z,42.97
2018-12-15T20:31:05.678Z,45.07
2018-12-15T20:33:35.024Z,48.07
2018-12-15T20:36:04.414Z,41.63
2018-12-15T20:38:33.845Z,41.37
2018-12-15T20:41:03.396Z,40.93
2018-12-15T20:43:32.921Z,42.60
2018-12-15T20:46:02.615Z,40.83
2018-12-15T20:48:32.499Z,39.03
2018-12-15T20:51:02.005Z,82.90
2018-12-15T20:53:31.432Z,185.80
2018-12-15T20:56:00.963Z,64.80
2018-12-15T20:58:30.403Z,53.73
2018-12-15T21:00:59.908Z,60.50
2018-12-15T21:03:29.411Z,61.37
2018-12-15T21:05:59.547Z,110.77
2018-12-15T21:08:29.167Z,88.77
2018-12-15T21:10:58.663Z,67.47
2018-12-15T21:13:28.256Z,53.93
2018-12-15T21:15:58.719Z,54.57
2018-12-15T21:18:28.308Z,59.13
2018-12-15T21:20:57.803Z,52.50
2018-12-15T21:23:27.307Z,47.00
2018-12-15T21:25:56.920Z,43.77
2018-12-15T21:28:26.510Z,39.03
2018-12-15T21:30:56.116Z,35.33
2018-12-15T21:33:25.548Z,37.20
2018-12-15T21:35:54.860Z,36.97
2018-12-15T21:38:24.287Z,36.57
2018-12-15T21:40:53.720Z,37.30
2018-12-15T21:43:23.260Z,42.97
2018-12-15T21:45:52.655Z,44.40
2018-12-15T21:48:22.304Z,38.80
2018-12-15T21:50:51.587Z,34.00
2018-12-15T21:53:21.512Z,42.97
2018-12-15T21:55:50.946Z,44.23
2018-12-15T21:58:20.371Z,37.43
2018-12-15T22:00:49.892Z,36.60
2018-12-15T22:03:19.465Z,38.10
2018-12-15T22:05:49.005Z,53.67
2018-12-15T22:08:18.393Z,35.70
2018-12-15T22:10:47.940Z,41.70
2018-12-15T22:13:17.478Z,47.77
2018-12-15T22:15:47.500Z,43.70
2018-12-15T22:18:16.952Z,37.00
2018-12-15T22:20:46.668Z,32.80
2018-12-15T22:23:16.121Z,34.53
2018-12-15T22:25:45.537Z,32.53
2018-12-15T22:28:15.086Z,44.40
2018-12-15T22:30:44.630Z,35.97
2018-12-15T22:33:14.031Z,38.73
2018-12-15T22:35:43.863Z,34.67
2018-12-15T22:38:13.449Z,37.47
2018-12-15T22:40:42.952Z,36.90
2018-12-15T22:43:12.446Z,37.30
2018-12-15T22:45:41.882Z,32.67
2018-12-15T22:48:11.879Z,37.83
2018-12-15T22:50:41.416Z,39.33
2018-12-15T22:53:10.887Z,38.70
2018-12-15T22:55:40.320Z,42.17
2018-12-15T22:58:09.810Z,38.10
2018-12-15T23:01:11.723Z,34.63
2018-12-15T23:03:41.504Z,32.67
2018-12-15T23:06:10.926Z,35.60
2018-12-15T23:08:40.304Z,38.57
2018-12-15T23:11:09.812Z,36.73
2018-12-15T23:13:39.375Z,36.43
2018-12-15T23:16:08.936Z,41.57
2018-12-15T23:18:38.404Z,32.70
2018-12-15T23:21:07.928Z,33.37
2018-12-15T23:23:37.325Z,39.00
2018-12-15T23:26:06.763Z,40.53
2018-12-15T23:28:36.281Z,41.20
2018-12-15T23:31:05.851Z,38.27
2018-12-15T23:33:35.307Z,34.53
2018-12-15T23:36:04.921Z,35.37
2018-12-15T23:38:34.339Z,36.40
2018-12-15T23:41:03.676Z,37.40
2018-12-15T23:43:33.098Z,39.33
2018-12-15T23:46:02.443Z,51.73
2018-12-15T23:48:31.995Z,61.87
2018-12-15T23:51:01.399Z,50.73
2018-12-15T23:53:30.782Z,53.97
2018-12-15T23:56:00.202Z,51.87
2018-12-15T23:58:29.992Z,56.13
